• Join FlightAware (Why Join?)
  • Login
  • US Flag 
03:05AM EDT


 

Airport Tracker/Info


-or-


 

Live Flight TrackerFlight Track Log ✈ AWE2740 ✈ 11-Oct-2013 ✈ KPHX - MMSD / SJD

Flight Track Log - Related Links

Times and Time Zones

All times are in EDT time to prevent confusion due to time zone crossing. See the AWE2740 flight status page for this flight to view local times or setup timezone preferences in your user account.

Time Position Orientation Groundspeed Altitude Reporting Facility
EDT Latitude Longitude Course Direction KTS MPH feet Rate Location/Type
08:11PM 33.4333 -112.0333 248° West 184 212 1,900  Level Phoenix TRACON
08:12PM 33.4167 -112.0833 248° West 204 235 3,600 2,100 Climbing Phoenix TRACON
08:13PM 33.3833 -112.1667 244° Southwest 271 312 6,000 1,980 Climbing Phoenix TRACON
08:14PM 33.3000 -112.1333 162° South 281 323 8,000 1,860 Climbing Phoenix TRACON
08:15PM 33.2156 -112.0883 156° South 287 330 10,300 1,980 Climbing Albuquerque Center
08:17PM 33.1350 -112.0447 156° South 315 362 12,300 2,040 Climbing Albuquerque Center
08:18PM 33.0439 -111.9936 155° Southeast 347 399 14,500 2,100 Climbing Albuquerque Center
08:19PM 32.9544 -111.9444 155° Southeast 364 419 16,700 2,100 Climbing Albuquerque Center
08:20PM 32.8636 -111.8797 149° Southeast 379 436 18,900 2,100 Climbing Albuquerque Center
08:21PM 32.7900 -111.7842 132° Southeast 394 453 21,100 2,040 Climbing Albuquerque Center
08:22PM 32.7136 -111.6881 133° Southeast 399 459 23,100 2,100 Climbing Albuquerque Center
08:23PM 32.6022 -111.6058 148° Southeast 402 463 25,500 2,040 Climbing Albuquerque Center
08:24PM 32.5000 -111.5506 155° Southeast 401 461 27,300 1,680 Climbing Albuquerque Center
08:25PM 32.3972 -111.4964 156° South 404 465 29,000 1,500 Climbing Albuquerque Center
08:26PM 32.2928 -111.4417 156° South 407 468 30,500 1,200 Climbing Albuquerque Center
08:27PM 32.1872 -111.3872 156° South 412 474 31,500 780 Climbing Albuquerque Center
08:28PM 32.0781 -111.3308 156° South 422 486 32,200 660 Climbing Albuquerque Center
08:29PM 31.9647 -111.2719 156° South 438 504 32,900 960 Climbing Albuquerque Center
08:30PM 31.8258 -111.2011 157° South 450 518 34,200 1,200 Climbing Albuquerque Center
08:31PM 31.7114 -111.1425 156° South 450 518 35,400 1,200 Climbing Albuquerque Center
08:32PM 31.6003 -111.0842 156° South 443 510 36,700 780 Climbing Albuquerque Center
08:33PM 31.4889 -111.0283 157° South 437 503 37,000 120 Climbing Albuquerque Center
08:34PM 31.3747 -110.9697 156° South 443 510 37,000  Level Albuquerque Center
08:36PM 31.2290 -110.9414 184° South  Level FlightAware Approximate
08:43PM 30.4751 -110.9767 182° South  Level FlightAware Approximate
08:44PM 30.3673 -110.9811 182° South  Level FlightAware Approximate
08:45PM 30.2596 -110.9855 182° South  Level FlightAware Approximate
08:46PM 30.1519 -110.9900 182° South  Level FlightAware Approximate
08:47PM 30.0441 -110.9944 182° South  Level FlightAware Approximate
08:48PM 29.9364 -110.9988 182° South  Level FlightAware Approximate
08:49PM 29.8287 -111.0032 182° South  Level FlightAware Approximate
08:50PM 29.7209 -111.0076 182° South  Level FlightAware Approximate
08:51PM 29.6132 -111.0119 182° South  Level FlightAware Approximate
08:52PM 29.5055 -111.0163 182° South  Level FlightAware Approximate
08:53PM 29.3978 -111.0207 182° South  Level FlightAware Approximate
08:54PM 29.2900 -111.0250 182° South  Level FlightAware Approximate
08:55PM 29.1823 -111.0294 182° South  Level FlightAware Approximate
08:56PM 29.0746 -111.0324 175° South  Level FlightAware Approximate
08:57PM 28.9672 -111.0213 175° South  Level FlightAware Approximate
08:58PM 28.8599 -111.0101 175° South  Level FlightAware Approximate
08:59PM 28.7525 -110.9990 175° South  Level FlightAware Approximate
09:00PM 28.6451 -110.9879 175° South  Level FlightAware Approximate
09:01PM 28.5378 -110.9769 175° South  Level FlightAware Approximate
09:02PM 28.4304 -110.9658 175° South  Level FlightAware Approximate
09:03PM 28.3231 -110.9548 175° South  Level FlightAware Approximate
09:04PM 28.2157 -110.9438 175° South  Level FlightAware Approximate
09:05PM 28.1084 -110.9328 175° South  Level FlightAware Approximate
09:06PM 28.0010 -110.9219 175° South  Level FlightAware Approximate
09:07PM 27.8938 -110.9089 173° South  Level FlightAware Approximate
09:08PM 27.7868 -110.8941 173° South  Level FlightAware Approximate
09:09PM 27.6798 -110.8793 173° South  Level FlightAware Approximate
09:10PM 27.5728 -110.8646 173° South  Level FlightAware Approximate
09:11PM 27.4658 -110.8499 172° South  Level FlightAware Approximate
09:12PM 27.3591 -110.8326 172° South  Level FlightAware Approximate
09:13PM 27.2524 -110.8153 172° South  Level FlightAware Approximate
09:14PM 27.1457 -110.7981 172° South  Level FlightAware Approximate
09:15PM 27.0390 -110.7810 172° South  Level FlightAware Approximate
09:16PM 26.9323 -110.7638 172° South  Level FlightAware Approximate
09:17PM 26.8256 -110.7467 172° South  Level FlightAware Approximate
09:18PM 26.7189 -110.7296 172° South  Level FlightAware Approximate
09:19PM 26.6121 -110.7126 172° South  Level FlightAware Approximate
09:20PM 26.5053 -110.6966 174° South  Level FlightAware Approximate
09:21PM 26.3981 -110.6836 174° South  Level FlightAware Approximate
09:22PM 26.2910 -110.6705 174° South  Level FlightAware Approximate
09:23PM 26.1838 -110.6576 174° South  Level FlightAware Approximate
09:24PM 26.0766 -110.6446 174° South  Level FlightAware Approximate
09:25PM 25.9695 -110.6312 172° South  Level FlightAware Approximate
09:26PM 25.8627 -110.6150 172° South  Level FlightAware Approximate
09:27PM 25.7559 -110.5988 172° South  Level FlightAware Approximate
09:28PM 25.6491 -110.5826 172° South  Level FlightAware Approximate
09:29PM 25.5423 -110.5665 172° South  Level FlightAware Approximate
09:30PM 25.4355 -110.5503 172° South  Level FlightAware Approximate
09:31PM 25.3298 -110.5272 171° South  Level FlightAware Approximate
09:32PM 25.2232 -110.5094 171° South  Level FlightAware Approximate
09:33PM 25.1165 -110.4928 173° South  Level FlightAware Approximate
09:34PM 25.0096 -110.4775 173° South  Level FlightAware Approximate
09:35PM 24.9026 -110.4628 174° South  Level FlightAware Approximate
09:36PM 24.7956 -110.4489 167° South  Level FlightAware Approximate
09:37PM 24.6898 -110.4261 171° South  Level FlightAware Approximate
09:38PM 24.5833 -110.4083 171° South  Level FlightAware Approximate
09:39PM 24.4768 -110.3897 171° South  Level FlightAware Approximate
09:40PM 24.3705 -110.3704 171° South  Level FlightAware Approximate
09:41PM 24.2634 -110.3570 174° South  Level FlightAware Approximate
09:42PM 24.1570 -110.3392 167° South  Level FlightAware Approximate
09:43PM 24.0534 -110.3087 151° Southeast  Level FlightAware Approximate
09:44PM 23.9589 -110.2519 151° Southeast  Level FlightAware Approximate
09:45PM 23.8644 -110.1952 151° Southeast  Level FlightAware Approximate
09:46PM 23.7703 -110.1377 150° Southeast  Level FlightAware Approximate
09:47PM 23.6767 -110.0793 151° Southeast  Level FlightAware Approximate
09:48PM 23.5830 -110.0212 147° Southeast  Level FlightAware Approximate
09:49PM 23.4928 -109.9568 147° Southeast  Level FlightAware Approximate
09:50PM 23.4011 -109.8951 149° Southeast  Level FlightAware Approximate
09:51PM 23.3120 -109.8310 155° Southeast  Level FlightAware Approximate
09:52PM 23.2206 -109.7696 145° Southeast  Level FlightAware Approximate
09:53PM 23.1518 -109.7210 151° Southeast  Level Estimated
09:54PM 23.1518 -109.7210 151° Southeast  Level Estimated
09:55PM 23.1518 -109.7210 151° Southeast  Level Estimated
09:56PM 23.1518 -109.7210 151° Southeast  Level Estimated
09:57PM 23.1518 -109.7210 151° Southeast  Level Estimated
09:58PM 23.1518 -109.7210 151° Southeast  Level Estimated
09:59PM 23.1518 -109.7210 151° Southeast  Level Estimated
10:00PM 23.1518 -109.7210 151° Southeast  Level Estimated
10:01PM 23.1518 -109.7210 151° Southeast  Level Estimated
10:02PM 23.1518 -109.7210 151° Southeast  Level Estimated